Time;durP1;ratioP1;P1;durP2;ratioP2;P2;SDS_P1;SDS_P2;PMS_P1;PMS_P2;Temp;Humidity;BMP_temperature;BMP_pressure;BME280_temperature;BME280_humidity;BME280_pressure;Samples;Min_cycle;Max_cycle;Signal;HPM_P1;HPM_P2
2022/12/18 00:01:52;;;;;;;;;;;-3.90;99.90;;;;;;5006107;28;20045;-78
2022/12/18 00:04:23;;;;;;;1.08;1.08;;;-4.00;99.90;;;;;;5009969;28;20298;-77
2022/12/18 00:06:49;;;;;;;1.75;1.67;;;-4.00;99.90;;;;;;5002657;28;20168;-78
2022/12/18 00:09:14;;;;;;;;;;;-4.00;99.90;;;;;;5001430;28;20581;-77
2022/12/18 00:11:40;;;;;;;0.80;0.80;;;-4.00;99.90;;;;;;5016852;28;20396;-78
2022/12/18 00:14:13;;;;;;;1.15;1.15;;;-4.00;99.90;;;;;;4999472;28;20089;-75
2022/12/18 00:16:39;;;;;;;1.95;1.83;;;-4.00;99.90;;;;;;5031504;28;20072;-76
2022/12/18 00:19:05;;;;;;;0.95;0.95;;;-4.00;99.90;;;;;;5004416;28;20065;-76
2022/12/18 00:21:32;;;;;;;0.90;0.90;;;-4.00;99.90;;;;;;5024923;28;20095;-76
2022/12/18 00:23:59;;;;;;;3.15;2.90;;;-4.00;99.90;;;;;;5019429;28;20045;-76
2022/12/18 00:26:29;;;;;;;2.40;2.15;;;-4.10;99.90;;;;;;5004051;28;20037;-76
2022/12/18 00:28:58;;;;;;;6.45;5.90;;;-4.10;99.90;;;;;;5000358;28;20046;-76
2022/12/18 00:31:24;;;;;;;0.90;0.90;;;-4.20;99.90;;;;;;5031614;28;20057;-76
2022/12/18 00:33:50;;;;;;;0.80;0.80;;;-4.20;99.90;;;;;;5028858;28;20042;-77
2022/12/18 00:36:17;;;;;;;;;;;-4.20;99.90;;;;;;5017561;28;20054;-76
2022/12/18 00:38:43;;;;;;;0.80;0.80;;;-4.30;99.90;;;;;;4990486;28;19925;-76
2022/12/18 00:41:11;;;;;;;1.45;1.35;;;-4.30;99.90;;;;;;4995462;28;20132;-76
2022/12/18 00:43:37;;;;;;;1.70;1.60;;;-3.70;99.90;;;;;;5037408;28;20045;-76
2022/12/18 00:46:04;;;;;;;2.55;2.35;;;-4.40;99.90;;;;;;5043354;28;20049;-76
2022/12/18 00:48:30;;;;;;;1.35;1.33;;;-4.40;99.90;;;;;;5003631;28;20063;-75
2022/12/18 00:50:55;;;;;;;;;;;-4.50;99.90;;;;;;5020467;28;20483;-76
2022/12/18 00:53:21;;;;;;;0.80;0.80;;;-4.50;99.90;;;;;;5041769;28;19931;-75
2022/12/18 00:55:47;;;;;;;;;;;-4.50;99.90;;;;;;4989535;28;20037;-75
2022/12/18 00:58:14;;;;;;;1.00;1.00;;;-4.60;99.90;;;;;;5016018;28;19947;-75
2022/12/18 01:00:41;;;;;;;2.65;2.55;;;-4.50;99.90;;;;;;5000464;28;20076;-75
2022/12/18 01:03:07;;;;;;;0.80;0.80;;;-4.60;99.90;;;;;;5004214;28;20049;-74
2022/12/18 01:05:33;;;;;;;;;;;-4.50;99.90;;;;;;5003167;28;20058;-75
2022/12/18 01:07:59;;;;;;;2.30;2.20;;;-4.50;99.90;;;;;;5006576;28;19925;-75
2022/12/18 01:10:25;;;;;;;;;;;-4.60;99.90;;;;;;5005470;28;20068;-75
2022/12/18 01:12:53;;;;;;;0.93;0.93;;;-4.60;99.90;;;;;;5020983;28;19936;-75
2022/12/18 01:15:19;;;;;;;0.82;0.82;;;-4.60;99.90;;;;;;5033651;28;20684;-76
2022/12/18 01:17:46;;;;;;;;;;;-4.70;99.90;;;;;;5029547;28;20030;-75
2022/12/18 01:20:12;;;;;;;2.10;2.00;;;-4.70;99.90;;;;;;5011252;28;19925;-75
2022/12/18 01:22:38;;;;;;;1.10;1.10;;;-4.70;99.90;;;;;;5042860;28;20056;-76
2022/12/18 01:25:05;;;;;;;2.05;1.20;;;-4.60;99.90;;;;;;5025107;28;20675;-76
2022/12/18 01:27:33;;;;;;;1.10;1.10;;;-4.70;99.90;;;;;;5015905;28;20053;-74
2022/12/18 01:29:58;;;;;;;0.93;0.93;;;-4.70;99.90;;;;;;5002785;28;21296;-75
2022/12/18 01:32:24;;;;;;;;;;;-4.70;99.90;;;;;;5001618;28;20136;-77
2022/12/18 01:34:49;;;;;;;2.00;1.90;;;-4.80;99.90;;;;;;5036060;28;21491;-76
2022/12/18 01:37:15;;;;;;;;;;;-4.80;99.90;;;;;;5005771;28;20037;-74
2022/12/18 01:39:42;;;;;;;1.48;1.45;;;-4.90;99.90;;;;;;5007017;28;19932;-77
2022/12/18 01:42:13;;;;;;;0.70;0.70;;;-4.90;99.90;;;;;;5020575;28;20398;-75
2022/12/18 01:45:03;;;;;;;0.88;0.88;;;-5.00;99.90;;;;;;5043046;28;20104;-76
2022/12/18 01:47:38;;;;;;;0.80;0.80;;;-5.10;99.90;;;;;;5023623;28;20092;-75
2022/12/18 01:50:18;;;;;;;0.80;0.80;;;-5.10;99.90;;;;;;5025903;28;20120;-76
2022/12/18 01:52:50;;;;;;;0.80;0.80;;;-5.00;99.90;;;;;;5045932;28;20048;-75
2022/12/18 01:55:18;;;;;;;0.90;0.90;;;-5.00;99.90;;;;;;5027823;28;20150;-76
2022/12/18 01:57:46;;;;;;;0.80;0.80;;;-5.00;99.90;;;;;;5007435;28;20117;-75
2022/12/18 02:00:15;;;;;;;14.48;2.75;;;-5.00;99.90;;;;;;5010202;28;20119;-77
2022/12/18 02:02:43;;;;;;;1.00;1.00;;;-5.00;99.90;;;;;;5029888;28;20056;-76
2022/12/18 02:05:13;;;;;;;1.10;1.10;;;-5.00;99.90;;;;;;5029105;28;20046;-75
2022/12/18 02:07:48;;;;;;;0.90;0.90;;;-4.70;99.90;;;;;;5007251;28;20087;-76
2022/12/18 02:10:17;;;;;;;2.40;2.30;;;-5.00;99.90;;;;;;5011395;28;20038;-75
2022/12/18 02:12:52;;;;;;;1.65;1.55;;;-5.20;99.90;;;;;;5038881;28;20115;-76
2022/12/18 02:15:43;;;;;;;1.67;1.60;;;-5.20;99.90;;;;;;5006946;28;20076;-76
2022/12/18 02:18:30;;;;;;;1.30;1.20;;;-5.20;99.90;;;;;;5002504;28;20044;-76
2022/12/18 02:21:08;;;;;;;0.80;0.80;;;-6.10;99.90;;;;;;5017059;28;20439;-75
2022/12/18 02:24:03;;;;;;;0.90;0.90;;;-5.50;99.90;;;;;;5000682;28;20057;-75
2022/12/18 02:26:40;;;;;;;0.93;0.93;;;-5.60;99.90;;;;;;5001487;28;20061;-75
2022/12/18 02:29:39;;;;;;;0.90;0.90;;;-5.70;99.90;;;;;;4997159;28;20049;-76
2022/12/18 02:32:10;;;;;;;1.88;1.83;;;-5.70;99.90;;;;;;4990669;28;20073;-76
2022/12/18 02:34:39;;;;;;;0.90;0.90;;;-5.70;99.90;;;;;;4996735;28;20041;-75
2022/12/18 02:37:08;;;;;;;0.90;0.90;;;-5.80;99.90;;;;;;4998959;28;20137;-76
2022/12/18 02:39:37;;;;;;;0.90;0.90;;;-4.10;99.90;;;;;;5031839;28;20057;-75
2022/12/18 02:42:07;;;;;;;0.90;0.90;;;-5.80;99.90;;;;;;5017272;28;20045;-76
2022/12/18 02:44:35;;;;;;;0.80;0.80;;;-5.80;99.90;;;;;;5009220;28;20077;-76
2022/12/18 02:47:01;;;;;;;0.82;0.82;;;-5.90;99.90;;;;;;5035795;28;20135;-75
2022/12/18 02:49:52;;;;;;;3.22;3.13;;;-5.90;99.90;;;;;;5004642;28;20063;-76
2022/12/18 02:52:54;;;;;;;0.95;0.95;;;-5.80;99.90;;;;;;5005308;28;20050;-75
2022/12/18 02:55:35;;;;;;;1.02;1.02;;;-5.80;99.90;;;;;;5027477;28;20037;-76
2022/12/18 02:58:10;;;;;;;5.63;1.77;;;-5.80;99.90;;;;;;5004074;28;20276;-76
2022/12/18 03:00:41;;;;;;;0.90;0.90;;;-5.80;99.90;;;;;;5021394;28;20045;-76
2022/12/18 03:03:14;;;;;;;0.90;0.90;;;-5.80;99.90;;;;;;5038729;28;20423;-76
2022/12/18 03:05:55;;;;;;;0.93;0.93;;;-5.70;99.90;;;;;;5027817;28;20038;-76
2022/12/18 03:08:29;;;;;;;1.30;1.30;;;-5.80;99.90;;;;;;5038199;28;20081;-75
2022/12/18 03:11:04;;;;;;;0.90;0.90;;;-5.80;99.90;;;;;;5009604;28;20070;-75
2022/12/18 03:13:48;;;;;;;1.25;1.25;;;-5.80;99.90;;;;;;5018629;28;20059;-74
2022/12/18 03:16:21;;;;;;;2.25;2.05;;;-5.80;99.90;;;;;;5002751;28;20491;-76
2022/12/18 03:18:51;;;;;;;1.02;1.02;;;-5.70;99.90;;;;;;5000480;28;20042;-76
2022/12/18 03:21:21;;;;;;;1.00;1.00;;;-5.80;99.90;;;;;;5015421;28;20047;-77
2022/12/18 03:23:49;;;;;;;0.80;0.80;;;-5.80;99.90;;;;;;5016437;28;20104;-75
2022/12/18 03:26:23;;;;;;;3.65;3.45;;;-5.70;99.90;;;;;;5001927;28;20466;-77
2022/12/18 03:28:57;;;;;;;2.72;2.55;;;-5.80;99.90;;;;;;4997182;28;20148;-75
2022/12/18 03:31:24;;;;;;;1.92;1.83;;;-5.80;99.90;;;;;;5007534;28;20191;-74
2022/12/18 03:34:01;;;;;;;3.05;2.85;;;-5.90;99.90;;;;;;5032798;28;20663;-75
2022/12/18 03:36:27;;;;;;;0.93;0.93;;;-5.90;99.90;;;;;;5005936;28;20046;-76
2022/12/18 03:38:53;;;;;;;0.98;0.98;;;-5.90;99.90;;;;;;5038385;28;20077;-75
2022/12/18 03:41:25;;;;;;;;;;;-5.90;99.90;;;;;;5019897;28;20711;-76
2022/12/18 03:44:13;;;;;;;2.05;1.95;;;-6.00;99.90;;;;;;5022251;28;19924;-75
2022/12/18 03:47:18;;;;;;;0.93;0.93;;;-6.00;99.90;;;;;;5015648;28;20104;-76
2022/12/18 03:50:21;;;;;;;1.75;1.65;;;-6.10;99.90;;;;;;5010049;28;20862;-74
2022/12/18 03:52:57;;;;;;;4.45;4.10;;;-6.10;99.90;;;;;;5010595;28;20050;-74
2022/12/18 03:55:30;;;;;;;0.90;0.90;;;-6.20;99.90;;;;;;5029461;28;20041;-75
2022/12/18 03:57:57;;;;;;;0.90;0.90;;;-6.20;99.90;;;;;;5041406;28;20827;-75
2022/12/18 04:00:23;;;;;;;0.90;0.90;;;-6.50;99.90;;;;;;5026404;28;20422;-75
2022/12/18 04:02:51;;;;;;;;;;;-6.20;99.90;;;;;;5009291;28;20033;-75
2022/12/18 04:05:17;;;;;;;;;;;-6.20;99.90;;;;;;5042134;28;19964;-76
2022/12/18 04:07:43;;;;;;;;;;;-6.20;99.90;;;;;;5031983;28;19977;-77
2022/12/18 04:10:10;;;;;;;;;;;-6.20;99.90;;;;;;5010847;28;19963;-75
2022/12/18 04:12:41;;;;;;;;;;;-6.20;99.90;;;;;;5046572;28;19940;-74
2022/12/18 04:15:09;;;;;;;;;;;-6.20;99.90;;;;;;5043429;28;20064;-75
2022/12/18 04:17:34;;;;;;;;;;;-6.20;99.90;;;;;;5005940;28;19925;-74
2022/12/18 04:20:06;;;;;;;;;;;-6.30;99.90;;;;;;5000174;28;19929;-74
2022/12/18 04:22:31;;;;;;;;;;;-6.30;99.90;;;;;;5008286;28;19925;-76
2022/12/18 04:24:58;;;;;;;;;;;-6.30;99.90;;;;;;5011127;28;19920;-75
2022/12/18 04:27:24;;;;;;;;;;;-6.40;99.90;;;;;;5008275;28;19931;-76
2022/12/18 04:29:50;;;;;;;;;;;-6.40;99.90;;;;;;5018833;28;19924;-75
2022/12/18 04:32:15;;;;;;;;;;;-6.40;99.90;;;;;;5035637;28;19976;-74
2022/12/18 04:34:41;;;;;;;;;;;-6.40;99.90;;;;;;5005566;28;20329;-76
2022/12/18 04:37:07;;;;;;;;;;;-6.50;99.90;;;;;;5019796;28;19924;-75
2022/12/18 04:39:33;;;;;;;;;;;-5.80;99.90;;;;;;5016766;28;19925;-75
2022/12/18 04:41:59;;;;;;;;;;;-6.50;99.90;;;;;;4999913;28;19928;-75
2022/12/18 04:44:24;;;;;;;;;;;-6.30;99.90;;;;;;5003693;28;20314;-75
2022/12/18 04:46:50;;;;;;;;;;;-6.60;99.90;;;;;;5009118;28;19931;-75
2022/12/18 04:49:15;;;;;;;;;;;-6.60;99.90;;;;;;5031696;28;19931;-75
2022/12/18 04:51:41;;;;;;;;;;;-6.50;99.90;;;;;;4999336;28;19963;-76
2022/12/18 04:54:07;;;;;;;;;;;-6.50;99.90;;;;;;5002101;28;19924;-76
2022/12/18 04:56:32;;;;;;;;;;;-6.50;99.90;;;;;;5019930;28;19925;-75
2022/12/18 04:59:01;;;;;;;;;;;-6.50;99.90;;;;;;5003487;28;19928;-75
2022/12/18 05:01:29;;;;;;;;;;;-6.50;99.90;;;;;;5001952;28;20012;-76
2022/12/18 05:03:55;;;;;;;;;;;-6.40;99.90;;;;;;5034566;28;20617;-74
2022/12/18 05:06:21;;;;;;;;;;;-6.40;99.90;;;;;;5002931;28;20388;-76
2022/12/18 05:08:46;;;;;;;;;;;-6.20;99.90;;;;;;5001643;28;19925;-76
2022/12/18 05:11:15;;;;;;;;;;;-6.40;99.90;;;;;;5034216;28;19925;-74
2022/12/18 05:13:41;;;;;;;;;;;-6.00;99.90;;;;;;5033365;28;19935;-74
2022/12/18 05:16:07;;;;;;;;;;;-6.40;99.90;;;;;;5034284;28;19921;-74
2022/12/18 05:18:33;;;;;;;;;;;-6.40;99.90;;;;;;5022177;28;19931;-75
2022/12/18 05:20:59;;;;;;;;;;;-6.40;99.90;;;;;;5019100;28;19932;-75
2022/12/18 05:23:25;;;;;;;;;;;-6.40;99.90;;;;;;5004323;28;19925;-75
2022/12/18 05:25:51;;;;;;;;;;;-6.50;99.90;;;;;;5033012;28;19970;-75
2022/12/18 05:28:17;;;;;;;;;;;-6.50;99.90;;;;;;5004296;28;19925;-74
2022/12/18 05:30:46;;;;;;;;;;;-6.50;99.90;;;;;;5003152;28;19924;-75
2022/12/18 05:33:12;;;;;;;;;;;-6.50;99.90;;;;;;5002039;28;20023;-74
2022/12/18 05:35:39;;;;;;;;;;;-6.50;99.90;;;;;;5001381;28;20306;-75
2022/12/18 05:38:06;;;;;;;;;;;-6.50;99.90;;;;;;5035015;28;19983;-74
2022/12/18 05:40:31;;;;;;;;;;;-6.50;99.90;;;;;;5036533;28;21834;-74
2022/12/18 05:42:58;;;;;;;;;;;-6.50;99.90;;;;;;5035657;28;19920;-74
2022/12/18 05:45:24;;;;;;;;;;;-5.70;99.90;;;;;;5007662;28;19925;-74
2022/12/18 05:47:49;;;;;;;;;;;-6.50;99.90;;;;;;5009785;28;19932;-75
2022/12/18 05:50:15;;;;;;;;;;;-6.20;99.90;;;;;;5010941;28;19925;-75
2022/12/18 05:52:41;;;;;;;;;;;-6.50;99.90;;;;;;5009277;28;20290;-75
2022/12/18 05:55:09;;;;;;;;;;;-6.50;99.90;;;;;;5024578;28;19928;-74
2022/12/18 05:57:35;;;;;;;;;;;-6.60;99.90;;;;;;5014670;28;19932;-74
2022/12/18 06:00:01;;;;;;;;;;;-6.60;99.90;;;;;;5007676;28;19921;-74
2022/12/18 06:02:27;;;;;;;;;;;-6.60;99.90;;;;;;5040544;28;20003;-74
2022/12/18 06:04:55;;;;;;;;;;;-6.70;99.90;;;;;;5014328;28;19962;-74
2022/12/18 06:07:21;;;;;;;;;;;-6.70;99.90;;;;;;5010819;28;20283;-74
2022/12/18 06:09:46;;;;;;;;;;;-6.80;99.90;;;;;;5006898;28;20008;-74
2022/12/18 06:12:15;;;;;;;;;;;-6.80;99.90;;;;;;5007662;28;19947;-75
2022/12/18 06:14:41;;;;;;;;;;;-6.80;99.90;;;;;;5004400;28;19920;-74
2022/12/18 06:17:08;;;;;;;;;;;-6.80;99.90;;;;;;4998377;28;20015;-74
2022/12/18 06:19:33;;;;;;;;;;;-6.80;99.90;;;;;;5018284;28;19975;-74
2022/12/18 06:21:59;;;;;;;;;;;-6.20;99.90;;;;;;5034540;28;20012;-74
2022/12/18 06:24:27;;;;;;;;;;;-6.80;99.90;;;;;;4998543;28;19974;-74
2022/12/18 06:26:52;;;;;;;;;;;-6.80;99.90;;;;;;4999857;28;19931;-74
2022/12/18 06:29:18;;;;;;;;;;;-6.80;99.90;;;;;;5001215;28;19917;-74
2022/12/18 06:31:43;;;;;;;;;;;-6.80;99.90;;;;;;5022266;28;19925;-74
2022/12/18 06:34:09;;;;;;;;;;;-6.90;99.90;;;;;;5017334;28;19928;-74
2022/12/18 06:36:34;;;;;;;;;;;-6.90;99.90;;;;;;5034023;28;19967;-74
2022/12/18 06:39:00;;;;;;;;;;;-7.00;99.90;;;;;;5002362;28;19925;-75
2022/12/18 06:41:26;;;;;;;;;;;-7.00;99.90;;;;;;5002883;28;19931;-75
2022/12/18 06:43:51;;;;;;;;;;;-7.00;99.90;;;;;;5017681;28;20343;-75
2022/12/18 06:46:20;;;;;;;;;;;-7.00;99.90;;;;;;5002529;28;19916;-75
2022/12/18 06:48:49;;;;;;;;;;;-7.00;99.90;;;;;;5002969;28;19960;-74
2022/12/18 06:51:18;;;;;;;;;;;-7.10;99.90;;;;;;5016580;28;19928;-74
2022/12/18 06:53:45;;;;;;;;;;;-7.10;99.90;;;;;;5000793;28;19978;-74
2022/12/18 06:56:11;;;;;;;;;;;-7.10;99.90;;;;;;5035797;28;19929;-74
2022/12/18 06:58:37;;;;;;;;;;;-7.10;99.90;;;;;;5017889;28;19961;-74
2022/12/18 07:01:04;;;;;;;;;;;-7.10;99.90;;;;;;5014109;28;20281;-74
2022/12/18 07:03:30;;;;;;;;;;;-7.10;99.90;;;;;;5004694;28;19953;-74
2022/12/18 07:05:56;;;;;;;;;;;-7.20;99.90;;;;;;5000129;28;20286;-74
2022/12/18 07:08:21;;;;;;;;;;;-7.20;99.90;;;;;;5029936;28;19920;-74
2022/12/18 07:10:48;;;;;;;;;;;-7.20;99.90;;;;;;5021063;28;19920;-73
2022/12/18 07:13:15;;;;;;;;;;;-7.20;99.90;;;;;;5010747;28;20013;-75
2022/12/18 07:15:43;;;;;;;;;;;-7.30;99.90;;;;;;5008476;28;20096;-74
2022/12/18 07:18:15;;;;;;;;;;;-7.30;99.90;;;;;;5011407;28;19924;-74
2022/12/18 07:20:40;;;;;;;;;;;-7.20;99.90;;;;;;5040446;28;21543;-75
2022/12/18 07:23:12;;;;;;;;;;;-7.20;99.90;;;;;;4992936;28;19925;-75
2022/12/18 07:25:37;;;;;;;;;;;-7.20;99.90;;;;;;5025647;28;19925;-75
2022/12/18 07:28:03;;;;;;;;;;;-7.20;99.90;;;;;;5039476;28;19972;-74
2022/12/18 07:30:29;;;;;;;;;;;-7.20;99.90;;;;;;5018696;28;20039;-75
2022/12/18 07:32:59;;;;;;;;;;;-7.10;99.90;;;;;;5001682;28;19937;-74
2022/12/18 07:35:25;;;;;;;;;;;-6.00;99.90;;;;;;4999913;28;19925;-74
2022/12/18 07:37:57;;;;;;;;;;;-7.10;99.90;;;;;;5013059;28;20074;-74
2022/12/18 07:40:23;;;;;;;;;;;-7.10;99.90;;;;;;5003259;28;19947;-74
2022/12/18 07:42:50;;;;;;;;;;;-7.10;99.90;;;;;;5007788;28;19925;-74
2022/12/18 07:45:16;;;;;;;;;;;-7.10;99.90;;;;;;5026333;28;19967;-75
2022/12/18 07:47:41;;;;;;;;;;;-7.10;99.90;;;;;;5047253;28;19924;-75
2022/12/18 07:50:07;;;;;;;;;;;-7.10;99.90;;;;;;5010374;28;20004;-75
2022/12/18 07:52:38;;;;;;;;;;;-7.00;99.90;;;;;;5010575;28;19995;-75
2022/12/18 07:55:04;;;;;;;;;;;-7.10;99.90;;;;;;5014740;28;19921;-74
2022/12/18 07:57:30;;;;;;;;;;;-7.10;99.90;;;;;;5011041;28;19932;-74
2022/12/18 07:59:55;;;;;;;;;;;-7.10;99.90;;;;;;5010394;28;19925;-75
2022/12/18 08:02:21;;;;;;;;;;;-7.10;99.90;;;;;;5032972;28;20003;-74
2022/12/18 08:04:46;;;;;;;;;;;-7.10;99.90;;;;;;4991092;28;19925;-74
2022/12/18 08:07:12;;;;;;;;;;;-7.10;99.90;;;;;;5007265;28;19932;-75
2022/12/18 08:09:45;;;;;;;;;;;-7.10;99.90;;;;;;5012163;28;20393;-75
2022/12/18 08:12:11;;;;;;;;;;;-7.10;99.90;;;;;;5016580;28;19925;-74
2022/12/18 08:14:37;;;;;;;;;;;-7.00;99.90;;;;;;5017155;28;20387;-75
2022/12/18 08:17:02;;;;;;;;;;;-7.00;99.90;;;;;;5003350;28;19925;-74
2022/12/18 08:19:28;;;;;;;;;;;-7.00;99.90;;;;;;5039906;28;20402;-75
2022/12/18 08:21:53;;;;;;;;;;;-6.90;99.90;;;;;;5006385;28;19924;-74
2022/12/18 08:24:19;;;;;;;;;;;-6.90;99.90;;;;;;5003626;28;19924;-73
2022/12/18 08:26:45;;;;;;;;;;;-6.90;99.90;;;;;;5000734;28;19921;-73
2022/12/18 08:29:10;;;;;;;;;;;-6.90;99.90;;;;;;5006835;28;19917;-74
2022/12/18 08:31:36;;;;;;;;;;;-6.80;99.90;;;;;;5004681;28;19925;-74
2022/12/18 08:34:02;;;;;;;;;;;-6.80;99.90;;;;;;5000005;28;20401;-74
2022/12/18 08:36:27;;;;;;;;;;;-6.80;99.90;;;;;;4998528;28;19971;-73
2022/12/18 08:38:59;;;;;;;;;;;-6.80;99.90;;;;;;5004163;28;20418;-74
2022/12/18 08:41:24;;;;;;;;;;;-6.70;99.90;;;;;;5038151;28;19926;-75
2022/12/18 08:46:38;;;;;;;;;;;-6.70;99.90;;;;;;5018018;28;19984;-75
2022/12/18 08:49:05;;;;;;;;;;;-6.60;99.90;;;;;;4998830;28;19932;-74
2022/12/18 08:51:32;;;;;;;;;;;-6.60;99.90;;;;;;5005689;28;19925;-74
2022/12/18 08:53:57;;;;;;;;;;;-6.60;99.90;;;;;;5001715;28;20008;-74
2022/12/18 08:56:23;;;;;;;;;;;-6.60;99.90;;;;;;5035087;28;19924;-74
2022/12/18 08:58:51;;;;;;;;;;;-6.40;99.90;;;;;;5024867;28;20007;-74
2022/12/18 09:01:17;;;;;;;;;;;-6.50;99.90;;;;;;5010140;28;19924;-73
2022/12/18 09:03:42;;;;;;;;;;;-6.50;99.90;;;;;;5001389;28;19932;-73
2022/12/18 09:06:08;;;;;;;;;;;-6.40;99.90;;;;;;5032459;28;19920;-74
2022/12/18 09:08:39;;;;;;;;;;;-6.40;99.90;;;;;;5002514;28;20305;-74
2022/12/18 09:11:10;;;;;;;;;;;-6.30;99.90;;;;;;5017938;28;19961;-74
2022/12/18 09:13:36;;;;;;;;;;;-5.90;99.90;;;;;;5002610;28;19964;-73
2022/12/18 09:16:09;;;;;;;;;;;-6.20;99.90;;;;;;5018564;28;19921;-74
2022/12/18 09:18:35;;;;;;;;;;;-6.20;99.90;;;;;;5000951;28;19932;-74
2022/12/18 09:21:07;;;;;;;;;;;-6.10;99.90;;;;;;5018388;28;19924;-74
2022/12/18 09:23:32;;;;;;;;;;;-4.90;99.90;;;;;;5033903;28;19991;-73
2022/12/18 09:25:58;;;;;;;;;;;-6.00;99.90;;;;;;5017269;28;19917;-73
2022/12/18 09:28:24;;;;;;;;;;;-5.90;99.90;;;;;;5008746;28;19925;-74
2022/12/18 09:30:50;;;;;;;;;;;-5.40;99.90;;;;;;5008335;28;20641;-74
2022/12/18 09:33:16;;;;;;;;;;;-5.70;99.90;;;;;;5012159;28;20010;-74
2022/12/18 09:35:43;;;;;;;;;;;-5.70;99.90;;;;;;5021363;28;19918;-75
2022/12/18 09:38:14;;;;;;;;;;;-5.10;99.90;;;;;;5009982;28;19921;-74
2022/12/18 09:40:45;;;;;;;;;;;-5.40;99.90;;;;;;5007974;28;19931;-75
2022/12/18 09:43:15;;;;;;;;;;;-5.40;99.90;;;;;;5009080;28;19924;-74
2022/12/18 09:45:46;;;;;;;;;;;-5.30;99.90;;;;;;5020992;28;19936;-73
2022/12/18 09:48:25;;;;;;;;;;;-5.20;99.90;;;;;;5033644;28;20048;-73
2022/12/18 09:50:54;;;;;;;;;;;-5.10;99.90;;;;;;5017614;28;20304;-75
2022/12/18 09:53:22;;;;;;;;;;;-5.10;99.90;;;;;;5019196;28;20847;-75
2022/12/18 09:55:48;;;;;;;;;;;-5.10;99.90;;;;;;5024799;28;19983;-74
2022/12/18 09:58:17;;;;;;;;;;;-5.10;99.90;;;;;;5018619;28;19925;-75
2022/12/18 10:00:43;;;;;;;;;;;-3.50;99.90;;;;;;5016478;28;20316;-73
2022/12/18 10:03:13;;;;;;;;;;;-5.00;99.90;;;;;;5018017;28;20595;-73
2022/12/18 10:05:45;;;;;;;;;;;-4.60;99.90;;;;;;5022081;28;19925;-73
2022/12/18 10:08:29;;;;;;;;;;;-5.00;99.90;;;;;;5019120;28;20784;-74
2022/12/18 10:10:57;;;;;;;;;;;-5.00;99.90;;;;;;5049068;28;19936;-74
2022/12/18 10:13:32;;;;;;;;;;;-4.90;99.90;;;;;;5048534;28;19929;-74
2022/12/18 10:16:06;;;;;;;;;;;-4.90;99.90;;;;;;5039185;28;19924;-73
2022/12/18 10:18:44;;;;;;;;;;;-4.80;99.90;;;;;;5011929;28;19926;-74
2022/12/18 10:21:18;;;;;;;;;;;-4.70;99.90;;;;;;5024103;28;19995;-75
2022/12/18 10:23:53;;;;;;;;;;;-4.60;99.90;;;;;;5039945;28;20344;-75
2022/12/18 10:26:19;;;;;;;;;;;-4.50;99.90;;;;;;5005072;28;19931;-74
2022/12/18 10:28:44;;;;;;;;;;;-4.40;99.90;;;;;;5016615;28;19917;-75
2022/12/18 10:31:17;;;;;;;;;;;-4.30;99.90;;;;;;5005610;28;19925;-74
2022/12/18 10:33:47;;;;;;;;;;;-4.20;99.90;;;;;;5009488;28;19920;-74
2022/12/18 10:36:14;;;;;;;;;;;-4.20;99.90;;;;;;5007055;28;20381;-73
2022/12/18 10:38:41;;;;;;;;;;;-4.10;99.90;;;;;;5005099;28;20007;-74
2022/12/18 10:41:27;;;;;;;;;;;-4.20;99.90;;;;;;5035995;28;19925;-74
2022/12/18 10:44:14;;;;;;;;;;;-4.20;99.90;;;;;;5035313;28;20283;-73
2022/12/18 10:46:40;;;;;;;;;;;-4.20;99.90;;;;;;5004839;28;20412;-74
2022/12/18 10:49:17;;;;;;;;;;;-4.20;99.90;;;;;;5035639;28;19925;-74
2022/12/18 10:51:43;;;;;;;;;;;-4.20;99.90;;;;;;5003808;28;19921;-73
2022/12/18 10:54:19;;;;;;;;;;;-4.20;99.90;;;;;;5000668;28;21774;-74
2022/12/18 10:56:45;;;;;;;;;;;-4.10;99.90;;;;;;5006275;28;19925;-74
2022/12/18 10:59:12;;;;;;;;;;;-4.10;99.90;;;;;;4998889;28;19972;-75
2022/12/18 11:01:48;;;;;;;;;;;-3.90;99.90;;;;;;5001030;28;19955;-74
2022/12/18 11:04:21;;;;;;;;;;;-3.90;99.90;;;;;;5003862;28;19964;-74
2022/12/18 11:06:55;;;;;;;;;;;-3.90;99.90;;;;;;5015720;28;19939;-73
2022/12/18 11:09:22;;;;;;;;;;;-3.80;99.90;;;;;;4998356;28;20608;-74
2022/12/18 11:11:59;;;;;;;;;;;-3.70;99.90;;;;;;4998654;28;20645;-73
2022/12/18 11:14:25;;;;;;;;;;;-3.10;99.90;;;;;;5032956;28;20366;-74
2022/12/18 11:16:52;;;;;;;;;;;-3.50;99.90;;;;;;5006153;28;19925;-75
2022/12/18 11:19:26;;;;;;;;;;;-3.40;99.90;;;;;;4999775;28;19921;-75
2022/12/18 11:21:52;;;;;;;;;;;-3.40;99.90;;;;;;5021619;28;19999;-75
2022/12/18 11:24:28;;;;;;;;;;;-3.30;99.90;;;;;;5003444;28;19951;-73
2022/12/18 11:26:54;;;;;;;;;;;-3.20;99.90;;;;;;5012856;28;19937;-74
2022/12/18 11:29:29;;;;;;;;;;;-3.20;99.90;;;;;;5012729;28;19916;-74
2022/12/18 11:32:19;;;;;;;;;;;-3.10;99.90;;;;;;5006149;28;19930;-74
2022/12/18 11:34:46;;;;;;;;;;;-3.10;99.90;;;;;;5021198;28;19929;-75
2022/12/18 11:37:14;;;;;;;;;;;-3.00;99.90;;;;;;5037128;28;19931;-74
2022/12/18 11:39:46;;;;;;;;;;;-2.80;99.90;;;;;;4996639;28;19931;-74
2022/12/18 11:42:23;;;;;;;;;;;-2.90;99.90;;;;;;5012545;28;19925;-73
2022/12/18 11:45:07;;;;;;;;;;;-2.80;99.90;;;;;;5033580;28;19929;-74
2022/12/18 11:47:48;;;;;;;;;;;-2.80;99.90;;;;;;5017797;28;19960;-74
2022/12/18 11:50:17;;;;;;;;;;;-2.70;99.90;;;;;;5014723;28;19971;-74
2022/12/18 11:52:42;;;;;;;;;;;-2.70;99.90;;;;;;5018971;28;19979;-74
2022/12/18 11:55:14;;;;;;;;;;;-2.60;99.90;;;;;;5016527;28;20350;-74
2022/12/18 11:57:58;;;;;;;;;;;-2.60;99.90;;;;;;5011557;28;19932;-74
2022/12/18 12:00:24;;;;;;;;;;;-2.60;99.90;;;;;;5015762;28;19925;-75
2022/12/18 12:03:08;;;;;;;;;;;-2.60;99.90;;;;;;5017323;28;20511;-74
2022/12/18 12:05:41;;;;;;;;;;;-2.60;99.90;;;;;;5020106;28;19925;-74
2022/12/18 12:08:26;;;;;;;;;;;-2.50;99.90;;;;;;5023284;28;20758;-74
2022/12/18 12:11:01;;;;;;;;;;;-2.50;99.90;;;;;;5020812;28;20321;-74
2022/12/18 12:13:42;;;;;;;;;;;-2.50;99.90;;;;;;5019625;28;20488;-75
2022/12/18 12:16:15;;;;;;;;;;;-2.50;99.90;;;;;;4999499;28;19925;-75
2022/12/18 12:18:48;;;;;;;;;;;-2.40;99.90;;;;;;5014031;28;19924;-75
2022/12/18 12:21:17;;;;;;;;;;;-2.40;99.90;;;;;;5019247;28;21953;-74
2022/12/18 12:24:00;;;;;;;;;;;-2.30;99.90;;;;;;5007233;28;19925;-75
2022/12/18 12:26:37;;;;;;;;;;;-2.30;99.90;;;;;;5005286;28;20040;-75
2022/12/18 12:29:09;;;;;;;;;;;-2.30;99.90;;;;;;5007163;28;21040;-74
2022/12/18 12:31:45;;;;;;;;;;;-2.30;99.90;;;;;;5022916;28;19929;-74
2022/12/18 12:34:16;;;;;;;;;;;-2.20;99.90;;;;;;5021629;28;19925;-77
2022/12/18 12:37:01;;;;;;;;;;;-2.20;99.90;;;;;;5007717;28;19959;-75
2022/12/18 12:39:30;;;;;;;;;;;-2.20;99.90;;;;;;5003172;28;20294;-74
2022/12/18 12:44:51;;;;;;;;;;;-2.10;99.90;;;;;;5009829;28;20321;-75
2022/12/18 12:47:22;;;;;;;;;;;-2.10;99.90;;;;;;5041402;28;19970;-75
2022/12/18 12:49:49;;;;;;;;;;;-2.10;99.90;;;;;;5008306;28;19975;-74
2022/12/18 12:52:25;;;;;;;;;;;-2.00;99.90;;;;;;5022271;28;19925;-74
2022/12/18 12:54:51;;;;;;;;;;;-2.00;99.90;;;;;;5010900;28;19925;-74
2022/12/18 12:57:28;;;;;;;;;;;-2.00;99.90;;;;;;5011225;28;19917;-76
2022/12/18 13:00:13;;;;;;;;;;;-2.00;99.90;;;;;;5015347;28;19929;-75
2022/12/18 13:02:52;;;;;;;;;;;-1.90;99.90;;;;;;5009078;28;19928;-74
2022/12/18 13:05:34;;;;;;;;;;;-1.90;99.90;;;;;;5008122;28;19925;-75
2022/12/18 13:08:02;;;;;;;;;;;-1.90;99.90;;;;;;5011149;28;19925;-74
2022/12/18 13:10:46;;;;;;;;;;;-1.80;99.90;;;;;;5039601;28;19928;-75
2022/12/18 13:13:14;;;;;;;;;;;-1.80;99.90;;;;;;5023675;28;20409;-73
2022/12/18 13:15:43;;;;;;;;;;;-1.70;99.90;;;;;;5039981;28;21181;-75
2022/12/18 13:18:08;;;;;;;;;;;-1.70;99.90;;;;;;5027626;28;20011;-76
2022/12/18 13:20:36;;;;;;;;;;;-1.60;99.90;;;;;;5040259;28;20546;-74
2022/12/18 13:23:18;;;;;;;;;;;-1.60;99.90;;;;;;5023080;28;20015;-75
2022/12/18 13:25:44;;;;;;;;;;;-1.60;99.90;;;;;;5038777;28;20045;-75
2022/12/18 13:28:15;;;;;;;;;;;-1.60;99.90;;;;;;5027057;28;20007;-74
2022/12/18 13:30:42;;;;;;;;;;;-1.60;99.90;;;;;;5040143;28;19932;-75
2022/12/18 13:33:16;;;;;;;;;;;-1.60;99.90;;;;;;5006657;28;20560;-75
2022/12/18 13:35:51;;;;;;;;;;;-1.60;99.90;;;;;;5007439;28;20347;-74
2022/12/18 13:38:21;;;;;;;;;;;-3.60;99.90;;;;;;5008048;28;20937;-74
2022/12/18 13:40:46;;;;;;;;;;;-1.70;99.90;;;;;;5003920;28;19925;-74
2022/12/18 13:43:22;;;;;;;;;;;-1.70;99.90;;;;;;5007260;28;19925;-74
2022/12/18 13:46:08;;;;;;;;;;;-1.70;99.90;;;;;;5045480;28;19924;-73
2022/12/18 13:48:37;;;;;;;;;;;-1.70;99.90;;;;;;5015021;28;20090;-75
2022/12/18 13:51:08;;;;;;;;;;;-1.70;99.90;;;;;;5047072;28;20012;-74
2022/12/18 13:53:36;;;;;;;;;;;-1.70;99.90;;;;;;5018141;28;19925;-76
2022/12/18 13:56:02;;;;;;;;;;;-1.70;99.90;;;;;;5026029;28;19924;-74
2022/12/18 13:58:31;;;;;;;;;;;-1.70;99.90;;;;;;5027770;28;19956;-75
2022/12/18 14:00:58;;;;;;;;;;;-1.70;99.90;;;;;;5048475;28;19964;-74
2022/12/18 14:03:27;;;;;;;;;;;-1.70;99.90;;;;;;5025021;28;20574;-75
2022/12/18 14:05:54;;;;;;;;;;;-1.70;99.90;;;;;;5015999;28;19925;-75
2022/12/18 14:08:20;;;;;;;;;;;-1.70;99.90;;;;;;5014889;28;20282;-75
2022/12/18 14:10:48;;;;;;;;;;;-1.70;99.90;;;;;;5045312;28;19979;-75
2022/12/18 14:14:36;;;;;;;;;;;-1.70;99.90;;;;;;5040088;27;20396;-74